createdAt,value
2023-02-11T00:00:16.791Z,75.69
2023-02-11T00:02:46.068Z,75.74
2023-02-11T00:05:14.378Z,76.25
2023-02-11T00:07:41.007Z,76.09
2023-02-11T00:10:08.432Z,76.13
2023-02-11T00:12:36.500Z,75.45
2023-02-11T00:15:03.995Z,75.36
2023-02-11T00:17:30.586Z,75.30
2023-02-11T00:19:57.143Z,75.97
2023-02-11T00:22:23.746Z,76.03
2023-02-11T00:24:50.381Z,75.04
2023-02-11T00:27:16.930Z,75.03
2023-02-11T00:29:43.480Z,75.15
2023-02-11T00:32:10.798Z,75.29
2023-02-11T00:34:38.298Z,75.13
2023-02-11T00:37:05.447Z,75.10
2023-02-11T00:39:32.554Z,75.13
2023-02-11T00:41:59.214Z,76.21
2023-02-11T00:44:25.795Z,75.04
2023-02-11T00:46:52.344Z,76.11
2023-02-11T00:49:19.278Z,75.83
2023-02-11T00:51:45.949Z,75.30
2023-02-11T00:54:12.498Z,75.43
2023-02-11T00:56:39.073Z,75.55
2023-02-11T00:59:05.641Z,76.21
2023-02-11T01:01:32.252Z,76.17
2023-02-11T01:03:58.846Z,75.72
2023-02-11T01:06:25.456Z,76.61
2023-02-11T01:08:51.995Z,76.35
2023-02-11T01:11:20.973Z,76.42
2023-02-11T01:13:48.955Z,75.44
2023-02-11T01:16:15.860Z,76.84
2023-02-11T01:18:44.378Z,75.60
2023-02-11T01:21:11.899Z,75.70
2023-02-11T01:23:38.577Z,75.66
2023-02-11T01:26:05.786Z,76.82
2023-02-11T01:28:32.525Z,75.87
2023-02-11T01:31:00.445Z,75.40
2023-02-11T01:33:27.105Z,76.98
2023-02-11T01:35:53.825Z,76.13
2023-02-11T01:38:23.755Z,75.70
2023-02-11T01:40:54.531Z,76.93
2023-02-11T01:43:21.934Z,76.70
2023-02-11T01:48:30.309Z,75.80
2023-02-11T01:51:04.665Z,76.54
2023-02-11T01:53:53.764Z,75.77
2023-02-11T01:56:41.277Z,75.78
2023-02-11T01:59:13.273Z,76.61
2023-02-11T02:01:43.639Z,75.81
2023-02-11T02:04:11.617Z,76.30
2023-02-11T02:06:49.046Z,75.64
2023-02-11T02:09:28.425Z,77.32
2023-02-11T02:11:55.016Z,76.62
2023-02-11T02:14:21.633Z,76.97
2023-02-11T02:16:48.318Z,76.18
2023-02-11T02:19:54.643Z,77.25
2023-02-11T02:33:39.559Z,76.66
2023-02-11T02:41:23.222Z,76.43
2023-02-11T02:43:51.386Z,77.12
2023-02-11T02:46:22.764Z,77.08
2023-02-11T02:48:52.627Z,77.33
2023-02-11T02:59:38.026Z,76.86
2023-02-11T03:07:33.552Z,76.10
2023-02-11T03:10:08.206Z,76.86
2023-02-11T03:12:37.051Z,76.67
2023-02-11T03:15:06.865Z,77.24
2023-02-11T03:17:36.540Z,76.77
2023-02-11T03:20:06.074Z,78.01
2023-02-11T03:22:37.219Z,77.52
2023-02-11T03:25:05.210Z,77.59
2023-02-11T03:27:45.319Z,76.98
2023-02-11T03:30:18.313Z,77.42
2023-02-11T03:38:10.362Z,76.97
2023-02-11T03:40:39.831Z,76.54
2023-02-11T03:43:13.234Z,76.49
2023-02-11T03:45:40.665Z,77.01
2023-02-11T03:48:14.640Z,77.10
2023-02-11T03:50:42.094Z,77.83
2023-02-11T03:53:10.162Z,76.54
2023-02-11T03:55:39.928Z,77.27
2023-02-11T03:58:07.213Z,78.46
2023-02-11T04:00:39.547Z,77.47
2023-02-11T04:03:07.170Z,76.97
2023-02-11T04:05:34.359Z,77.68
2023-02-11T04:08:01.300Z,77.72
2023-02-11T04:10:27.902Z,78.06
2023-02-11T04:12:54.482Z,76.62
2023-02-11T04:15:21.039Z,77.36
2023-02-11T04:17:47.599Z,77.99
2023-02-11T04:20:14.229Z,78.20
2023-02-11T04:22:40.917Z,77.47
2023-02-11T04:25:08.253Z,77.90
2023-02-11T04:27:35.099Z,77.68
2023-02-11T04:30:01.910Z,78.32
2023-02-11T04:32:28.447Z,76.65
2023-02-11T04:34:55.414Z,77.71
2023-02-11T04:37:21.998Z,78.05
2023-02-11T04:39:48.551Z,77.48
2023-02-11T04:42:15.126Z,78.20
2023-02-11T04:44:41.657Z,77.12
2023-02-11T04:47:08.545Z,77.12
2023-02-11T04:49:35.119Z,78.39
2023-02-11T04:52:01.738Z,77.93
2023-02-11T04:54:28.278Z,76.96
2023-02-11T04:56:54.831Z,77.79
2023-02-11T04:59:21.417Z,77.87
2023-02-11T05:01:47.991Z,78.30
2023-02-11T05:04:14.648Z,77.94
2023-02-11T05:06:41.314Z,77.82
2023-02-11T05:09:08.415Z,78.15
2023-02-11T05:11:36.810Z,77.46
2023-02-11T05:14:03.398Z,77.74
2023-02-11T05:16:29.978Z,77.78
2023-02-11T05:18:56.685Z,77.98
2023-02-11T05:21:23.244Z,78.20
2023-02-11T05:23:49.877Z,77.77
2023-02-11T05:26:16.953Z,77.22
2023-02-11T05:28:44.584Z,76.91
2023-02-11T05:31:14.522Z,76.78
2023-02-11T05:33:41.898Z,77.81
2023-02-11T05:36:11.094Z,77.81
2023-02-11T05:38:38.103Z,77.84
2023-02-11T05:41:06.217Z,78.26
2023-02-11T05:43:35.260Z,77.22
2023-02-11T05:46:02.240Z,77.56
2023-02-11T05:48:28.848Z,77.76
2023-02-11T05:50:55.414Z,77.11
2023-02-11T05:53:22.159Z,76.89
2023-02-11T05:55:48.965Z,77.17
2023-02-11T05:58:15.908Z,78.13
2023-02-11T06:00:42.447Z,77.83
2023-02-11T06:03:09.064Z,77.99
2023-02-11T06:05:35.633Z,76.96
2023-02-11T06:08:02.202Z,78.06
2023-02-11T06:10:28.786Z,77.13
2023-02-11T06:12:55.337Z,78.07
2023-02-11T06:15:21.877Z,76.80
2023-02-11T06:17:48.499Z,78.07
2023-02-11T06:20:15.554Z,77.96
2023-02-11T06:22:42.150Z,77.84
2023-02-11T06:25:08.880Z,77.77
2023-02-11T06:27:35.456Z,77.26
2023-02-11T06:30:02.081Z,77.15
2023-02-11T06:32:43.369Z,76.63
2023-02-11T06:35:12.446Z,77.69
2023-02-11T06:37:39.763Z,77.41
2023-02-11T06:40:06.838Z,76.84
2023-02-11T06:42:34.645Z,77.78
2023-02-11T06:45:01.302Z,77.75
2023-02-11T06:47:27.856Z,76.22
2023-02-11T06:49:54.391Z,77.17
2023-02-11T06:52:20.922Z,76.64
2023-02-11T06:54:47.472Z,77.06
2023-02-11T06:57:14.006Z,77.90
2023-02-11T06:59:41.259Z,77.62
2023-02-11T07:02:10.373Z,77.67
2023-02-11T07:04:37.021Z,76.43
2023-02-11T07:07:03.734Z,76.41
2023-02-11T07:09:30.486Z,76.70
2023-02-11T07:11:57.024Z,76.82
2023-02-11T07:14:23.581Z,76.45
2023-02-11T07:16:50.219Z,77.36
2023-02-11T07:19:16.916Z,76.47
2023-02-11T07:21:43.448Z,77.72
2023-02-11T07:24:11.409Z,76.90
2023-02-11T07:26:38.644Z,77.16
2023-02-11T07:29:05.180Z,77.69
2023-02-11T07:31:32.372Z,76.93
2023-02-11T07:34:01.321Z,77.09
2023-02-11T07:36:29.770Z,77.67
2023-02-11T07:38:56.432Z,76.55
2023-02-11T07:41:25.485Z,76.27
2023-02-11T07:43:52.478Z,76.58
2023-02-11T07:46:23.273Z,77.35
2023-02-11T07:48:49.974Z,76.32
2023-02-11T07:51:19.149Z,77.32
2023-02-11T07:53:46.453Z,76.12
2023-02-11T07:56:14.658Z,76.13
2023-02-11T07:58:43.155Z,77.86
2023-02-11T08:01:13.853Z,76.32
2023-02-11T08:03:42.053Z,76.26
2023-02-11T08:06:13.257Z,77.59
2023-02-11T08:08:40.066Z,76.34
2023-02-11T08:11:08.256Z,77.55
2023-02-11T08:13:35.557Z,77.33
2023-02-11T08:16:02.868Z,76.30
2023-02-11T08:18:30.346Z,76.99
2023-02-11T08:20:56.910Z,76.40
2023-02-11T08:23:23.482Z,77.37
2023-02-11T08:25:50.060Z,76.04
2023-02-11T08:28:16.622Z,77.26
2023-02-11T08:30:43.281Z,77.19
2023-02-11T08:33:09.848Z,76.11
2023-02-11T08:35:37.316Z,76.92
2023-02-11T08:38:03.870Z,77.33
2023-02-11T08:40:30.440Z,77.11
2023-02-11T08:42:56.983Z,76.82
2023-02-11T08:45:23.561Z,76.67
2023-02-11T08:47:50.113Z,76.44
2023-02-11T08:50:16.709Z,76.78
2023-02-11T08:52:44.624Z,76.57
2023-02-11T08:55:11.585Z,75.95
2023-02-11T08:57:38.135Z,77.21
2023-02-11T09:00:05.674Z,76.85
2023-02-11T09:02:32.279Z,75.77
2023-02-11T09:04:58.872Z,76.80
2023-02-11T09:07:25.410Z,76.11
2023-02-11T09:09:52.020Z,76.62
2023-02-11T09:12:18.583Z,76.49
2023-02-11T09:14:45.120Z,76.27
2023-02-11T09:17:12.139Z,75.95
2023-02-11T09:19:40.368Z,75.77
2023-02-11T09:22:08.070Z,75.88
2023-02-11T09:24:34.719Z,75.63
2023-02-11T09:27:01.236Z,75.54
2023-02-11T09:29:27.887Z,75.95
2023-02-11T09:31:54.503Z,75.64
2023-02-11T09:34:21.222Z,75.64
2023-02-11T09:36:47.778Z,76.28
2023-02-11T09:39:17.660Z,75.96
2023-02-11T09:42:10.439Z,75.39
2023-02-11T09:44:39.606Z,75.89
2023-02-11T09:47:21.160Z,75.46
2023-02-11T09:49:52.666Z,75.85
2023-02-11T09:52:59.030Z,75.63
2023-02-11T09:55:34.379Z,75.42
2023-02-11T09:58:03.926Z,75.05
2023-02-11T10:00:40.070Z,74.99
2023-02-11T10:06:16.978Z,74.93
2023-02-11T10:25:06.140Z,74.38
2023-02-11T10:27:35.824Z,73.02
2023-02-11T10:30:41.015Z,72.62
2023-02-11T10:33:19.458Z,72.31
2023-02-11T10:35:46.219Z,71.58
2023-02-11T10:38:13.180Z,70.84
2023-02-11T10:40:39.927Z,69.91
2023-02-11T10:43:12.672Z,69.89
2023-02-11T10:45:50.868Z,70.24
2023-02-11T10:51:20.438Z,69.47
2023-02-11T10:53:49.926Z,68.74
2023-02-11T10:56:38.062Z,69.00
2023-02-11T10:59:21.490Z,68.06
2023-02-11T11:01:53.289Z,66.95
2023-02-11T11:07:24.936Z,66.46
2023-02-11T11:09:59.716Z,65.96
2023-02-11T11:18:23.026Z,64.01
2023-02-11T11:20:59.772Z,64.55
2023-02-11T11:23:29.144Z,66.17
2023-02-11T11:26:18.015Z,65.45
2023-02-11T11:29:07.096Z,65.32
2023-02-11T11:31:45.345Z,66.09
2023-02-11T11:34:30.960Z,65.92
2023-02-11T11:36:59.551Z,65.81
2023-02-11T11:39:34.975Z,65.51
2023-02-11T11:42:06.232Z,66.10
2023-02-11T11:44:35.017Z,66.60
2023-02-11T11:55:25.329Z,65.80
2023-02-11T11:57:52.024Z,66.50
2023-02-11T12:00:26.738Z,66.20
2023-02-11T12:17:07.256Z,65.22
2023-02-11T12:34:00.153Z,66.27
2023-02-11T12:42:25.205Z,66.00
2023-02-11T12:47:40.099Z,66.25
2023-02-11T12:53:10.248Z,64.95
2023-02-11T12:55:43.125Z,65.18
2023-02-11T12:58:18.268Z,65.64
2023-02-11T13:00:51.905Z,65.89
2023-02-11T13:03:28.717Z,65.42
2023-02-11T13:05:58.736Z,65.11
2023-02-11T13:11:08.072Z,65.77
2023-02-11T13:13:48.286Z,65.91
2023-02-11T13:16:38.508Z,66.30
2023-02-11T13:27:41.276Z,65.11
2023-02-11T13:33:06.624Z,65.72
2023-02-11T13:35:37.726Z,65.55
2023-02-11T13:40:45.225Z,64.98
2023-02-11T13:43:23.548Z,64.93
2023-02-11T13:45:52.478Z,65.49
2023-02-11T13:48:24.891Z,65.17
2023-02-11T13:50:56.616Z,65.09
2023-02-11T13:53:24.263Z,65.13
2023-02-11T13:56:04.302Z,64.97
2023-02-11T14:01:07.944Z,65.40
2023-02-11T14:03:58.134Z,64.79
2023-02-11T14:06:48.458Z,64.78
2023-02-11T14:11:56.311Z,65.24
2023-02-11T14:14:28.651Z,64.57
2023-02-11T14:19:37.161Z,64.54
2023-02-11T14:22:13.483Z,64.42
2023-02-11T14:24:48.058Z,63.84
2023-02-11T14:27:23.545Z,64.24
2023-02-11T14:35:59.099Z,64.74
2023-02-11T14:38:52.811Z,64.28
2023-02-11T14:41:30.557Z,64.02
2023-02-11T14:44:01.607Z,64.26
2023-02-11T14:46:30.808Z,64.56
2023-02-11T14:49:01.173Z,64.73
2023-02-11T14:51:34.962Z,63.88
2023-02-11T14:54:17.152Z,64.10
2023-02-11T14:56:44.663Z,63.80
2023-02-11T14:59:21.368Z,64.32
2023-02-11T15:01:51.602Z,64.92
2023-02-11T15:04:36.199Z,64.01
2023-02-11T15:07:07.023Z,64.96
2023-02-11T15:09:41.010Z,64.28
2023-02-11T15:12:23.664Z,64.48
2023-02-11T15:14:54.031Z,64.71
2023-02-11T15:17:25.519Z,64.29
2023-02-11T15:19:56.818Z,65.17
2023-02-11T15:22:27.010Z,64.39
2023-02-11T15:25:16.758Z,64.44
2023-02-11T15:27:47.518Z,65.45
2023-02-11T15:33:02.962Z,64.53
2023-02-11T15:35:40.964Z,64.80
2023-02-11T15:38:08.201Z,64.34
2023-02-11T15:40:37.132Z,65.04
2023-02-11T15:43:07.153Z,64.44
2023-02-11T15:45:38.834Z,65.45
2023-02-11T15:50:51.499Z,64.20
2023-02-11T15:53:25.465Z,64.59
2023-02-11T15:55:57.371Z,65.33
2023-02-11T15:58:24.323Z,65.24
2023-02-11T16:00:59.633Z,64.95
2023-02-11T16:03:32.487Z,64.54
2023-02-11T16:06:21.609Z,64.70
2023-02-11T16:17:11.076Z,64.11
2023-02-11T16:19:45.895Z,64.14
2023-02-11T16:22:17.943Z,65.21
2023-02-11T16:24:47.866Z,64.26
2023-02-11T16:27:29.729Z,65.30
2023-02-11T16:29:57.727Z,65.36
2023-02-11T16:32:27.933Z,64.34
2023-02-11T16:34:57.946Z,64.86
2023-02-11T16:37:25.593Z,64.11
2023-02-11T16:39:56.738Z,64.87
2023-02-11T16:42:23.515Z,64.24
2023-02-11T16:44:50.290Z,64.37
2023-02-11T16:47:23.576Z,64.62
2023-02-11T16:49:50.839Z,64.87
2023-02-11T16:52:18.804Z,65.12
2023-02-11T16:54:45.414Z,64.81
2023-02-11T16:59:53.948Z,64.37
2023-02-11T17:02:26.129Z,65.26
2023-02-11T17:04:54.434Z,64.86
2023-02-11T17:07:21.315Z,64.41
2023-02-11T17:09:47.854Z,64.59
2023-02-11T17:12:14.447Z,65.17
2023-02-11T17:14:40.957Z,65.38
2023-02-11T17:17:08.062Z,65.44
2023-02-11T17:19:34.801Z,65.15
2023-02-11T17:22:01.398Z,65.00
2023-02-11T17:24:27.959Z,65.05
2023-02-11T17:26:54.980Z,64.85
2023-02-11T17:29:24.756Z,64.67
2023-02-11T17:31:52.613Z,64.24
2023-02-11T17:34:21.226Z,64.92
2023-02-11T17:36:48.162Z,64.49
2023-02-11T17:39:14.848Z,65.18
2023-02-11T17:41:41.419Z,64.58
2023-02-11T17:44:08.938Z,64.99
2023-02-11T17:46:36.208Z,64.75
2023-02-11T17:49:03.752Z,65.13
2023-02-11T17:51:33.863Z,64.45
2023-02-11T17:54:01.259Z,65.69
2023-02-11T17:56:29.947Z,65.23
2023-02-11T17:58:56.503Z,64.82
2023-02-11T18:01:23.300Z,65.09
2023-02-11T18:03:49.938Z,64.96
2023-02-11T18:06:16.488Z,65.09
2023-02-11T18:08:43.138Z,65.14
2023-02-11T18:11:11.394Z,65.04
2023-02-11T18:13:38.048Z,65.30
2023-02-11T18:16:06.022Z,65.97
2023-02-11T18:18:32.725Z,65.57
2023-02-11T18:21:00.659Z,64.73
2023-02-11T18:23:27.987Z,65.54
2023-02-11T18:25:54.573Z,65.65
2023-02-11T18:28:21.417Z,65.30
2023-02-11T18:30:48.276Z,65.19
2023-02-11T18:33:15.072Z,65.44
2023-02-11T18:35:42.510Z,65.41
2023-02-11T18:38:09.925Z,65.13
2023-02-11T18:40:40.316Z,65.24
2023-02-11T18:43:07.411Z,65.43
2023-02-11T18:45:34.308Z,65.33
2023-02-11T18:48:03.621Z,65.79
2023-02-11T18:50:30.479Z,65.73
2023-02-11T18:52:57.016Z,65.54
2023-02-11T18:55:25.925Z,65.58
2023-02-11T18:57:52.997Z,65.97
2023-02-11T19:00:20.874Z,65.75
2023-02-11T19:02:47.545Z,65.82
2023-02-11T19:05:14.184Z,65.95
2023-02-11T19:07:40.752Z,66.00
2023-02-11T19:10:08.787Z,66.63
2023-02-11T19:12:35.405Z,65.55
2023-02-11T19:15:02.035Z,65.75
2023-02-11T19:17:28.642Z,66.29
2023-02-11T19:19:55.236Z,66.22
2023-02-11T19:22:21.803Z,65.82
2023-02-11T19:24:48.445Z,65.88
2023-02-11T19:27:15.009Z,66.51
2023-02-11T19:29:41.545Z,65.83
2023-02-11T19:32:08.210Z,65.45
2023-02-11T19:34:41.206Z,65.93
2023-02-11T19:37:10.794Z,66.07
2023-02-11T19:39:37.374Z,65.86
2023-02-11T19:42:04.091Z,65.66
2023-02-11T19:44:30.734Z,65.95
2023-02-11T19:46:57.536Z,66.23
2023-02-11T19:49:25.980Z,65.78
2023-02-11T19:51:54.122Z,65.79
2023-02-11T19:54:21.510Z,65.89
2023-02-11T19:56:49.005Z,65.86
2023-02-11T19:59:16.130Z,65.85
2023-02-11T20:01:42.796Z,65.68
2023-02-11T20:04:09.467Z,65.97
2023-02-11T20:06:36.130Z,65.71
2023-02-11T20:09:07.247Z,65.59
2023-02-11T20:11:35.344Z,65.32
2023-02-11T20:14:02.427Z,65.53
2023-02-11T20:16:46.818Z,65.25
2023-02-11T20:19:18.105Z,66.27
2023-02-11T20:21:47.221Z,66.01
2023-02-11T20:24:14.973Z,65.88
2023-02-11T20:26:42.524Z,66.08
2023-02-11T20:29:09.479Z,65.71
2023-02-11T20:31:36.280Z,65.85
2023-02-11T20:34:03.012Z,65.64
2023-02-11T20:36:32.308Z,65.67
2023-02-11T20:39:00.440Z,65.32
2023-02-11T20:41:30.902Z,65.76
2023-02-11T20:44:00.232Z,65.36
2023-02-11T20:46:29.119Z,64.89
2023-02-11T20:48:56.973Z,66.01
2023-02-11T20:51:26.788Z,65.61
2023-02-11T20:53:54.059Z,65.69
2023-02-11T20:56:24.505Z,65.37
2023-02-11T20:58:52.165Z,65.47
2023-02-11T21:01:21.905Z,65.25
2023-02-11T21:03:53.483Z,65.18
2023-02-11T21:06:22.337Z,65.58
2023-02-11T21:08:48.874Z,65.69
2023-02-11T21:11:16.166Z,65.74
2023-02-11T21:13:43.887Z,65.28
2023-02-11T21:16:15.759Z,65.20
2023-02-11T21:18:42.804Z,65.16
2023-02-11T21:21:09.769Z,65.41
2023-02-11T21:23:36.344Z,65.82
2023-02-11T21:26:02.887Z,65.80
2023-02-11T21:28:29.527Z,65.16
2023-02-11T21:30:56.965Z,65.46
2023-02-11T21:33:24.924Z,66.01
2023-02-11T21:35:56.066Z,65.31
2023-02-11T21:38:23.114Z,66.01
2023-02-11T21:40:50.246Z,65.71
2023-02-11T21:43:16.928Z,65.33
2023-02-11T21:45:45.087Z,65.43
2023-02-11T21:48:12.858Z,65.56
2023-02-11T21:50:42.245Z,65.58
2023-02-11T21:53:09.680Z,65.47
2023-02-11T21:55:37.381Z,65.77
2023-02-11T21:58:04.788Z,65.96
2023-02-11T22:00:31.601Z,65.81
2023-02-11T22:02:58.315Z,65.61
2023-02-11T22:05:25.169Z,65.75
2023-02-11T22:07:52.107Z,65.31
2023-02-11T22:10:19.606Z,65.09
2023-02-11T22:12:46.386Z,65.83
2023-02-11T22:15:13.419Z,65.36
2023-02-11T22:17:40.059Z,65.23
2023-02-11T22:20:07.496Z,66.32
2023-02-11T22:22:34.707Z,65.47
2023-02-11T22:25:02.208Z,66.27
2023-02-11T22:27:28.868Z,66.09
2023-02-11T22:29:55.412Z,65.99
2023-02-11T22:32:22.002Z,65.49
2023-02-11T22:34:48.936Z,66.07
2023-02-11T22:37:16.513Z,66.15
2023-02-11T22:39:43.056Z,65.55
2023-02-11T22:42:09.684Z,65.58
2023-02-11T22:44:37.260Z,65.54
2023-02-11T22:47:03.920Z,65.52
2023-02-11T22:49:32.499Z,65.61
2023-02-11T22:51:59.451Z,66.45
2023-02-11T22:54:25.999Z,66.00
2023-02-11T22:56:53.303Z,65.63
2023-02-11T22:59:20.651Z,65.75
2023-02-11T23:01:47.605Z,65.79
2023-02-11T23:04:15.903Z,65.64
2023-02-11T23:06:43.279Z,66.55
2023-02-11T23:09:12.402Z,66.39
2023-02-11T23:11:41.005Z,66.08
2023-02-11T23:14:08.721Z,66.18
2023-02-11T23:16:35.919Z,65.79
2023-02-11T23:19:06.525Z,65.88
2023-02-11T23:21:35.815Z,66.56
2023-02-11T23:24:05.757Z,66.47
2023-02-11T23:26:32.416Z,65.86
2023-02-11T23:29:00.039Z,66.07
2023-02-11T23:31:34.199Z,66.41
2023-02-11T23:34:01.470Z,65.93
2023-02-11T23:36:28.289Z,66.89
2023-02-11T23:38:54.877Z,66.99
2023-02-11T23:41:22.345Z,66.31
2023-02-11T23:43:51.189Z,66.74
2023-02-11T23:46:18.282Z,67.00
2023-02-11T23:48:45.305Z,66.43
2023-02-11T23:51:11.898Z,67.18
2023-02-11T23:53:39.637Z,67.21
2023-02-11T23:56:09.215Z,66.97
2023-02-11T23:58:36.469Z,66.76
